sensor_id;sensor_type;location;lat;lon;timestamp;P1;durP1;ratioP1;P2;durP2;ratioP2
79373;SDS011;68844;53.128;17.958;2023-09-08T00:00:15;4.90;;;3.30;;
79373;SDS011;68844;53.128;17.958;2023-09-08T00:03:02;5.20;;;3.10;;
79373;SDS011;68844;53.128;17.958;2023-09-08T00:05:29;3.60;;;3.20;;
79373;SDS011;68844;53.128;17.958;2023-09-08T00:07:56;3.70;;;2.70;;
79373;SDS011;68844;53.128;17.958;2023-09-08T00:10:22;3.60;;;3.30;;
79373;SDS011;68844;53.128;17.958;2023-09-08T00:12:49;5.30;;;3.50;;
79373;SDS011;68844;53.128;17.958;2023-09-08T00:15:15;4.00;;;3.70;;
79373;SDS011;68844;53.128;17.958;2023-09-08T00:17:42;3.70;;;3.10;;
79373;SDS011;68844;53.128;17.958;2023-09-08T00:20:09;4.60;;;2.70;;
79373;SDS011;68844;53.128;17.958;2023-09-08T00:22:37;2.90;;;2.70;;
79373;SDS011;68844;53.128;17.958;2023-09-08T00:25:04;2.90;;;2.70;;
79373;SDS011;68844;53.128;17.958;2023-09-08T00:27:31;3.40;;;3.10;;
79373;SDS011;68844;53.128;17.958;2023-09-08T00:29:59;4.50;;;2.90;;
79373;SDS011;68844;53.128;17.958;2023-09-08T00:32:30;3.20;;;2.70;;
79373;SDS011;68844;53.128;17.958;2023-09-08T00:34:56;3.50;;;3.20;;
79373;SDS011;68844;53.128;17.958;2023-09-08T00:37:23;3.40;;;2.90;;
79373;SDS011;68844;53.128;17.958;2023-09-08T00:39:51;3.30;;;3.00;;
79373;SDS011;68844;53.128;17.958;2023-09-08T00:42:17;3.50;;;2.70;;
79373;SDS011;68844;53.128;17.958;2023-09-08T00:44:44;3.30;;;3.00;;
79373;SDS011;68844;53.128;17.958;2023-09-08T00:47:11;3.40;;;3.10;;
79373;SDS011;68844;53.128;17.958;2023-09-08T00:49:38;4.00;;;2.90;;
79373;SDS011;68844;53.128;17.958;2023-09-08T00:52:05;3.60;;;3.30;;
79373;SDS011;68844;53.128;17.958;2023-09-08T00:54:32;3.40;;;3.10;;
79373;SDS011;68844;53.128;17.958;2023-09-08T00:56:58;3.80;;;3.30;;
79373;SDS011;68844;53.128;17.958;2023-09-08T00:59:29;3.30;;;2.90;;
79373;SDS011;68844;53.128;17.958;2023-09-08T01:01:59;3.00;;;2.70;;
79373;SDS011;68844;53.128;17.958;2023-09-08T01:06:54;3.90;;;3.00;;
79373;SDS011;68844;53.128;17.958;2023-09-08T01:11:51;3.30;;;3.00;;
79373;SDS011;68844;53.128;17.958;2023-09-08T01:14:18;3.10;;;2.80;;
79373;SDS011;68844;53.128;17.958;2023-09-08T01:16:48;3.30;;;2.90;;
79373;SDS011;68844;53.128;17.958;2023-09-08T01:19:15;3.20;;;2.90;;
79373;SDS011;68844;53.128;17.958;2023-09-08T01:21:52;4.50;;;3.50;;
79373;SDS011;68844;53.128;17.958;2023-09-08T01:27:35;4.10;;;2.70;;
79373;SDS011;68844;53.128;17.958;2023-09-08T01:30:04;4.00;;;3.10;;
79373;SDS011;68844;53.128;17.958;2023-09-08T01:32:34;3.40;;;3.10;;
79373;SDS011;68844;53.128;17.958;2023-09-08T01:35:01;3.60;;;3.20;;
79373;SDS011;68844;53.128;17.958;2023-09-08T01:37:27;5.30;;;3.30;;
79373;SDS011;68844;53.128;17.958;2023-09-08T01:39:54;3.40;;;2.60;;
79373;SDS011;68844;53.128;17.958;2023-09-08T01:42:21;3.30;;;3.00;;
79373;SDS011;68844;53.128;17.958;2023-09-08T01:44:47;3.00;;;2.80;;
79373;SDS011;68844;53.128;17.958;2023-09-08T01:47:14;3.10;;;2.80;;
79373;SDS011;68844;53.128;17.958;2023-09-08T01:49:40;3.30;;;3.00;;
79373;SDS011;68844;53.128;17.958;2023-09-08T01:52:07;3.40;;;3.10;;
79373;SDS011;68844;53.128;17.958;2023-09-08T01:54:35;3.00;;;2.70;;
79373;SDS011;68844;53.128;17.958;2023-09-08T01:57:01;3.90;;;2.70;;
79373;SDS011;68844;53.128;17.958;2023-09-08T01:59:29;3.40;;;3.10;;
79373;SDS011;68844;53.128;17.958;2023-09-08T02:01:55;3.40;;;3.00;;
79373;SDS011;68844;53.128;17.958;2023-09-08T02:04:22;3.60;;;3.20;;
79373;SDS011;68844;53.128;17.958;2023-09-08T02:06:48;5.00;;;3.10;;
79373;SDS011;68844;53.128;17.958;2023-09-08T02:09:15;3.40;;;2.60;;
79373;SDS011;68844;53.128;17.958;2023-09-08T02:11:42;3.90;;;2.80;;
79373;SDS011;68844;53.128;17.958;2023-09-08T02:14:09;3.40;;;3.10;;
79373;SDS011;68844;53.128;17.958;2023-09-08T02:16:36;4.30;;;3.30;;
79373;SDS011;68844;53.128;17.958;2023-09-08T02:19:02;3.10;;;2.90;;
79373;SDS011;68844;53.128;17.958;2023-09-08T02:21:29;3.80;;;3.00;;
79373;SDS011;68844;53.128;17.958;2023-09-08T02:23:55;3.30;;;3.00;;
79373;SDS011;68844;53.128;17.958;2023-09-08T02:26:22;3.50;;;3.20;;
79373;SDS011;68844;53.128;17.958;2023-09-08T02:28:49;5.10;;;3.40;;
79373;SDS011;68844;53.128;17.958;2023-09-08T02:31:16;3.60;;;3.30;;
79373;SDS011;68844;53.128;17.958;2023-09-08T02:33:43;4.80;;;3.10;;
79373;SDS011;68844;53.128;17.958;2023-09-08T02:36:10;3.10;;;2.80;;
79373;SDS011;68844;53.128;17.958;2023-09-08T02:38:37;3.30;;;3.00;;
79373;SDS011;68844;53.128;17.958;2023-09-08T02:41:05;4.80;;;3.10;;
79373;SDS011;68844;53.128;17.958;2023-09-08T02:43:31;3.70;;;3.40;;
79373;SDS011;68844;53.128;17.958;2023-09-08T02:45:58;3.90;;;3.40;;
79373;SDS011;68844;53.128;17.958;2023-09-08T02:48:25;3.60;;;2.80;;
79373;SDS011;68844;53.128;17.958;2023-09-08T02:50:51;2.80;;;2.60;;
79373;SDS011;68844;53.128;17.958;2023-09-08T02:53:20;3.90;;;3.60;;
79373;SDS011;68844;53.128;17.958;2023-09-08T02:55:46;4.20;;;3.30;;
79373;SDS011;68844;53.128;17.958;2023-09-08T02:58:13;3.30;;;2.90;;
79373;SDS011;68844;53.128;17.958;2023-09-08T03:00:39;3.40;;;2.80;;
79373;SDS011;68844;53.128;17.958;2023-09-08T03:03:06;2.80;;;2.50;;
79373;SDS011;68844;53.128;17.958;2023-09-08T03:05:32;3.50;;;3.20;;
79373;SDS011;68844;53.128;17.958;2023-09-08T03:08:00;3.30;;;3.00;;
79373;SDS011;68844;53.128;17.958;2023-09-08T03:10:26;3.30;;;3.00;;
79373;SDS011;68844;53.128;17.958;2023-09-08T03:15:22;3.20;;;2.90;;
79373;SDS011;68844;53.128;17.958;2023-09-08T03:17:48;3.50;;;3.10;;
79373;SDS011;68844;53.128;17.958;2023-09-08T03:20:15;2.70;;;2.50;;
79373;SDS011;68844;53.128;17.958;2023-09-08T03:22:42;3.90;;;3.20;;
79373;SDS011;68844;53.128;17.958;2023-09-08T03:25:11;3.30;;;3.00;;
79373;SDS011;68844;53.128;17.958;2023-09-08T03:27:40;3.20;;;2.90;;
79373;SDS011;68844;53.128;17.958;2023-09-08T03:30:06;4.60;;;3.00;;
79373;SDS011;68844;53.128;17.958;2023-09-08T03:32:33;3.90;;;3.20;;
79373;SDS011;68844;53.128;17.958;2023-09-08T03:35:00;3.50;;;3.20;;
79373;SDS011;68844;53.128;17.958;2023-09-08T03:37:27;3.40;;;3.10;;
79373;SDS011;68844;53.128;17.958;2023-09-08T03:39:54;4.10;;;3.50;;
79373;SDS011;68844;53.128;17.958;2023-09-08T03:42:21;4.50;;;3.30;;
79373;SDS011;68844;53.128;17.958;2023-09-08T03:44:48;3.70;;;3.40;;
79373;SDS011;68844;53.128;17.958;2023-09-08T03:47:14;3.70;;;3.20;;
79373;SDS011;68844;53.128;17.958;2023-09-08T03:49:41;4.70;;;3.50;;
79373;SDS011;68844;53.128;17.958;2023-09-08T03:52:07;4.40;;;3.60;;
79373;SDS011;68844;53.128;17.958;2023-09-08T03:54:34;3.60;;;3.30;;
79373;SDS011;68844;53.128;17.958;2023-09-08T03:57:01;4.30;;;3.20;;
79373;SDS011;68844;53.128;17.958;2023-09-08T03:59:27;3.70;;;3.40;;
79373;SDS011;68844;53.128;17.958;2023-09-08T04:01:54;4.00;;;3.60;;
79373;SDS011;68844;53.128;17.958;2023-09-08T04:04:21;4.20;;;3.40;;
79373;SDS011;68844;53.128;17.958;2023-09-08T04:06:49;4.00;;;3.40;;
79373;SDS011;68844;53.128;17.958;2023-09-08T04:09:15;3.90;;;3.20;;
79373;SDS011;68844;53.128;17.958;2023-09-08T04:11:42;4.10;;;3.20;;
79373;SDS011;68844;53.128;17.958;2023-09-08T04:14:09;4.00;;;3.10;;
79373;SDS011;68844;53.128;17.958;2023-09-08T04:16:36;3.50;;;3.10;;
79373;SDS011;68844;53.128;17.958;2023-09-08T04:19:04;3.30;;;3.00;;
79373;SDS011;68844;53.128;17.958;2023-09-08T04:21:30;5.00;;;3.20;;
79373;SDS011;68844;53.128;17.958;2023-09-08T04:23:57;4.70;;;3.50;;
79373;SDS011;68844;53.128;17.958;2023-09-08T04:26:24;3.40;;;3.10;;
79373;SDS011;68844;53.128;17.958;2023-09-08T04:28:50;4.30;;;3.90;;
79373;SDS011;68844;53.128;17.958;2023-09-08T04:31:17;3.30;;;3.00;;
79373;SDS011;68844;53.128;17.958;2023-09-08T04:33:44;4.60;;;3.00;;
79373;SDS011;68844;53.128;17.958;2023-09-08T04:36:11;3.70;;;3.10;;
79373;SDS011;68844;53.128;17.958;2023-09-08T04:41:09;3.50;;;3.20;;
79373;SDS011;68844;53.128;17.958;2023-09-08T04:43:37;3.60;;;3.10;;
79373;SDS011;68844;53.128;17.958;2023-09-08T04:46:04;3.80;;;3.00;;
79373;SDS011;68844;53.128;17.958;2023-09-08T04:48:30;3.00;;;2.50;;
79373;SDS011;68844;53.128;17.958;2023-09-08T04:50:57;3.70;;;2.90;;
79373;SDS011;68844;53.128;17.958;2023-09-08T04:53:24;3.30;;;2.40;;
79373;SDS011;68844;53.128;17.958;2023-09-08T04:55:51;3.70;;;2.70;;
79373;SDS011;68844;53.128;17.958;2023-09-08T04:58:19;4.40;;;2.70;;
79373;SDS011;68844;53.128;17.958;2023-09-08T05:00:45;4.60;;;3.00;;
79373;SDS011;68844;53.128;17.958;2023-09-08T05:03:12;3.60;;;2.60;;
79373;SDS011;68844;53.128;17.958;2023-09-08T05:05:39;3.00;;;2.70;;
79373;SDS011;68844;53.128;17.958;2023-09-08T05:08:06;7.20;;;2.80;;
79373;SDS011;68844;53.128;17.958;2023-09-08T05:10:32;2.90;;;2.20;;
79373;SDS011;68844;53.128;17.958;2023-09-08T05:13:00;3.60;;;2.70;;
79373;SDS011;68844;53.128;17.958;2023-09-08T05:15:27;2.90;;;2.40;;
79373;SDS011;68844;53.128;17.958;2023-09-08T05:17:55;5.40;;;2.70;;
79373;SDS011;68844;53.128;17.958;2023-09-08T05:20:22;4.20;;;2.50;;
79373;SDS011;68844;53.128;17.958;2023-09-08T05:22:49;4.20;;;2.20;;
79373;SDS011;68844;53.128;17.958;2023-09-08T05:25:17;4.40;;;2.50;;
79373;SDS011;68844;53.128;17.958;2023-09-08T05:27:44;3.50;;;2.60;;
79373;SDS011;68844;53.128;17.958;2023-09-08T05:30:12;4.00;;;2.70;;
79373;SDS011;68844;53.128;17.958;2023-09-08T05:32:39;3.50;;;2.60;;
79373;SDS011;68844;53.128;17.958;2023-09-08T05:35:06;2.90;;;2.40;;
79373;SDS011;68844;53.128;17.958;2023-09-08T05:37:33;5.00;;;2.80;;
79373;SDS011;68844;53.128;17.958;2023-09-08T05:40:00;3.90;;;2.40;;
79373;SDS011;68844;53.128;17.958;2023-09-08T05:42:27;5.20;;;2.60;;
79373;SDS011;68844;53.128;17.958;2023-09-08T05:44:53;4.60;;;2.80;;
79373;SDS011;68844;53.128;17.958;2023-09-08T05:47:21;5.20;;;2.40;;
79373;SDS011;68844;53.128;17.958;2023-09-08T05:49:48;5.60;;;2.70;;
79373;SDS011;68844;53.128;17.958;2023-09-08T05:52:15;2.60;;;2.20;;
79373;SDS011;68844;53.128;17.958;2023-09-08T05:54:42;3.00;;;2.70;;
79373;SDS011;68844;53.128;17.958;2023-09-08T05:57:09;6.10;;;2.70;;
79373;SDS011;68844;53.128;17.958;2023-09-08T05:59:36;4.30;;;3.10;;
79373;SDS011;68844;53.128;17.958;2023-09-08T06:02:03;6.90;;;3.10;;
79373;SDS011;68844;53.128;17.958;2023-09-08T06:04:29;4.10;;;3.10;;
79373;SDS011;68844;53.128;17.958;2023-09-08T06:07:00;4.20;;;3.40;;
79373;SDS011;68844;53.128;17.958;2023-09-08T06:09:27;5.20;;;3.40;;
79373;SDS011;68844;53.128;17.958;2023-09-08T06:11:54;4.40;;;3.20;;
79373;SDS011;68844;53.128;17.958;2023-09-08T06:14:21;4.90;;;3.10;;
79373;SDS011;68844;53.128;17.958;2023-09-08T06:16:48;5.70;;;3.50;;
79373;SDS011;68844;53.128;17.958;2023-09-08T06:19:15;5.60;;;3.50;;
79373;SDS011;68844;53.128;17.958;2023-09-08T06:21:42;6.40;;;3.40;;
79373;SDS011;68844;53.128;17.958;2023-09-08T06:26:37;5.40;;;3.60;;
79373;SDS011;68844;53.128;17.958;2023-09-08T06:29:05;3.90;;;3.20;;
79373;SDS011;68844;53.128;17.958;2023-09-08T06:31:32;2.60;;;2.40;;
79373;SDS011;68844;53.128;17.958;2023-09-08T06:36:26;4.80;;;3.20;;
79373;SDS011;68844;53.128;17.958;2023-09-08T06:38:52;5.80;;;3.60;;
79373;SDS011;68844;53.128;17.958;2023-09-08T06:41:19;6.20;;;3.30;;
79373;SDS011;68844;53.128;17.958;2023-09-08T06:43:46;4.40;;;3.00;;
79373;SDS011;68844;53.128;17.958;2023-09-08T06:46:20;5.20;;;3.30;;
79373;SDS011;68844;53.128;17.958;2023-09-08T06:48:48;3.70;;;3.20;;
79373;SDS011;68844;53.128;17.958;2023-09-08T06:51:15;3.60;;;3.00;;
79373;SDS011;68844;53.128;17.958;2023-09-08T06:53:43;6.40;;;3.50;;
79373;SDS011;68844;53.128;17.958;2023-09-08T06:56:11;3.70;;;3.20;;
79373;SDS011;68844;53.128;17.958;2023-09-08T06:58:38;4.70;;;3.40;;
79373;SDS011;68844;53.128;17.958;2023-09-08T07:01:06;4.20;;;3.00;;
79373;SDS011;68844;53.128;17.958;2023-09-08T07:03:32;3.40;;;3.10;;
79373;SDS011;68844;53.128;17.958;2023-09-08T07:06:04;6.30;;;3.10;;
79373;SDS011;68844;53.128;17.958;2023-09-08T07:08:31;4.70;;;3.00;;
79373;SDS011;68844;53.128;17.958;2023-09-08T07:10:57;5.10;;;3.10;;
79373;SDS011;68844;53.128;17.958;2023-09-08T07:13:24;3.80;;;2.80;;
79373;SDS011;68844;53.128;17.958;2023-09-08T07:15:51;4.10;;;2.90;;
79373;SDS011;68844;53.128;17.958;2023-09-08T07:18:18;4.20;;;2.70;;
79373;SDS011;68844;53.128;17.958;2023-09-08T07:20:48;4.80;;;3.30;;
79373;SDS011;68844;53.128;17.958;2023-09-08T07:23:18;4.40;;;2.60;;
79373;SDS011;68844;53.128;17.958;2023-09-08T07:25:46;6.00;;;3.40;;
79373;SDS011;68844;53.128;17.958;2023-09-08T07:28:14;3.10;;;2.60;;
79373;SDS011;68844;53.128;17.958;2023-09-08T07:30:42;3.20;;;2.60;;
79373;SDS011;68844;53.128;17.958;2023-09-08T07:33:09;6.90;;;3.20;;
79373;SDS011;68844;53.128;17.958;2023-09-08T07:35:40;3.50;;;1.90;;
79373;SDS011;68844;53.128;17.958;2023-09-08T07:38:06;4.10;;;2.30;;
79373;SDS011;68844;53.128;17.958;2023-09-08T07:40:33;4.90;;;2.40;;
79373;SDS011;68844;53.128;17.958;2023-09-08T07:43:01;2.80;;;1.80;;
79373;SDS011;68844;53.128;17.958;2023-09-08T07:45:28;3.60;;;2.10;;
79373;SDS011;68844;53.128;17.958;2023-09-08T07:47:54;4.60;;;2.00;;
79373;SDS011;68844;53.128;17.958;2023-09-08T07:50:22;2.60;;;1.70;;
79373;SDS011;68844;53.128;17.958;2023-09-08T07:52:51;2.00;;;1.70;;
79373;SDS011;68844;53.128;17.958;2023-09-08T07:55:19;2.70;;;1.90;;
79373;SDS011;68844;53.128;17.958;2023-09-08T07:57:49;2.60;;;1.70;;
79373;SDS011;68844;53.128;17.958;2023-09-08T08:00:17;2.40;;;1.70;;
79373;SDS011;68844;53.128;17.958;2023-09-08T08:02:47;1.90;;;1.60;;
79373;SDS011;68844;53.128;17.958;2023-09-08T08:05:18;1.90;;;1.40;;
79373;SDS011;68844;53.128;17.958;2023-09-08T08:07:44;2.70;;;1.60;;
79373;SDS011;68844;53.128;17.958;2023-09-08T08:10:11;2.50;;;1.60;;
79373;SDS011;68844;53.128;17.958;2023-09-08T08:12:39;2.40;;;1.80;;
79373;SDS011;68844;53.128;17.958;2023-09-08T08:15:07;1.80;;;1.70;;
79373;SDS011;68844;53.128;17.958;2023-09-08T08:17:36;2.60;;;1.50;;
79373;SDS011;68844;53.128;17.958;2023-09-08T08:20:04;2.20;;;1.80;;
79373;SDS011;68844;53.128;17.958;2023-09-08T08:22:38;1.20;;;1.10;;
79373;SDS011;68844;53.128;17.958;2023-09-08T08:25:05;1.20;;;1.00;;
79373;SDS011;68844;53.128;17.958;2023-09-08T08:27:31;1.10;;;0.80;;
79373;SDS011;68844;53.128;17.958;2023-09-08T08:29:58;2.10;;;1.40;;
79373;SDS011;68844;53.128;17.958;2023-09-08T08:32:27;1.70;;;1.20;;
79373;SDS011;68844;53.128;17.958;2023-09-08T08:37:22;2.20;;;1.30;;
79373;SDS011;68844;53.128;17.958;2023-09-08T08:39:49;2.40;;;1.10;;
79373;SDS011;68844;53.128;17.958;2023-09-08T08:42:16;1.80;;;1.10;;
79373;SDS011;68844;53.128;17.958;2023-09-08T08:44:43;1.50;;;1.10;;
79373;SDS011;68844;53.128;17.958;2023-09-08T08:47:10;1.80;;;1.10;;
79373;SDS011;68844;53.128;17.958;2023-09-08T08:49:40;1.50;;;1.30;;
79373;SDS011;68844;53.128;17.958;2023-09-08T08:52:11;5.30;;;1.30;;
79373;SDS011;68844;53.128;17.958;2023-09-08T08:54:41;1.80;;;1.10;;
79373;SDS011;68844;53.128;17.958;2023-09-08T08:57:09;1.30;;;0.90;;
79373;SDS011;68844;53.128;17.958;2023-09-08T08:59:37;3.30;;;1.40;;
79373;SDS011;68844;53.128;17.958;2023-09-08T09:02:04;3.20;;;1.10;;
79373;SDS011;68844;53.128;17.958;2023-09-08T09:04:31;1.40;;;1.10;;
79373;SDS011;68844;53.128;17.958;2023-09-08T09:06:59;2.20;;;1.20;;
79373;SDS011;68844;53.128;17.958;2023-09-08T09:09:26;1.80;;;1.30;;
79373;SDS011;68844;53.128;17.958;2023-09-08T09:11:52;1.50;;;1.00;;
79373;SDS011;68844;53.128;17.958;2023-09-08T09:14:19;2.20;;;1.10;;
79373;SDS011;68844;53.128;17.958;2023-09-08T09:16:46;1.40;;;1.10;;
79373;SDS011;68844;53.128;17.958;2023-09-08T09:19:21;2.00;;;1.30;;
79373;SDS011;68844;53.128;17.958;2023-09-08T09:21:54;1.80;;;1.20;;
79373;SDS011;68844;53.128;17.958;2023-09-08T09:24:28;1.20;;;1.00;;
79373;SDS011;68844;53.128;17.958;2023-09-08T09:26:59;2.40;;;1.00;;
79373;SDS011;68844;53.128;17.958;2023-09-08T09:29:27;1.70;;;1.10;;
79373;SDS011;68844;53.128;17.958;2023-09-08T09:32:01;1.40;;;1.00;;
79373;SDS011;68844;53.128;17.958;2023-09-08T09:34:32;1.50;;;1.00;;
79373;SDS011;68844;53.128;17.958;2023-09-08T09:36:59;2.60;;;1.30;;
79373;SDS011;68844;53.128;17.958;2023-09-08T09:39:26;2.20;;;1.20;;
79373;SDS011;68844;53.128;17.958;2023-09-08T09:41:53;1.30;;;1.20;;
79373;SDS011;68844;53.128;17.958;2023-09-08T09:44:23;1.80;;;1.20;;
79373;SDS011;68844;53.128;17.958;2023-09-08T09:46:52;3.40;;;1.20;;
79373;SDS011;68844;53.128;17.958;2023-09-08T09:49:20;1.70;;;1.30;;
79373;SDS011;68844;53.128;17.958;2023-09-08T09:51:48;2.80;;;1.30;;
79373;SDS011;68844;53.128;17.958;2023-09-08T09:54:19;1.70;;;1.20;;
79373;SDS011;68844;53.128;17.958;2023-09-08T09:56:46;1.80;;;1.40;;
79373;SDS011;68844;53.128;17.958;2023-09-08T09:59:17;1.50;;;1.30;;
79373;SDS011;68844;53.128;17.958;2023-09-08T10:01:44;2.10;;;1.10;;
79373;SDS011;68844;53.128;17.958;2023-09-08T10:04:12;2.00;;;1.40;;
79373;SDS011;68844;53.128;17.958;2023-09-08T10:06:41;3.30;;;1.30;;
79373;SDS011;68844;53.128;17.958;2023-09-08T10:09:09;1.50;;;1.10;;
79373;SDS011;68844;53.128;17.958;2023-09-08T10:11:49;1.90;;;1.20;;
79373;SDS011;68844;53.128;17.958;2023-09-08T10:14:18;2.20;;;1.40;;
79373;SDS011;68844;53.128;17.958;2023-09-08T10:16:45;1.60;;;1.20;;
79373;SDS011;68844;53.128;17.958;2023-09-08T10:19:16;1.50;;;1.20;;
79373;SDS011;68844;53.128;17.958;2023-09-08T10:21:45;1.40;;;1.00;;
79373;SDS011;68844;53.128;17.958;2023-09-08T10:24:18;1.20;;;0.80;;
79373;SDS011;68844;53.128;17.958;2023-09-08T10:26:51;2.20;;;1.20;;
79373;SDS011;68844;53.128;17.958;2023-09-08T10:29:29;1.30;;;1.20;;
79373;SDS011;68844;53.128;17.958;2023-09-08T10:31:56;2.40;;;1.30;;
79373;SDS011;68844;53.128;17.958;2023-09-08T10:34:24;3.20;;;1.40;;
79373;SDS011;68844;53.128;17.958;2023-09-08T10:36:52;2.30;;;1.20;;
79373;SDS011;68844;53.128;17.958;2023-09-08T10:39:32;1.70;;;1.10;;
79373;SDS011;68844;53.128;17.958;2023-09-08T10:47:19;1.50;;;1.10;;
79373;SDS011;68844;53.128;17.958;2023-09-08T10:49:51;1.80;;;1.10;;
79373;SDS011;68844;53.128;17.958;2023-09-08T10:52:26;1.60;;;1.20;;
79373;SDS011;68844;53.128;17.958;2023-09-08T10:54:59;1.80;;;1.20;;
79373;SDS011;68844;53.128;17.958;2023-09-08T10:57:25;2.30;;;1.10;;
79373;SDS011;68844;53.128;17.958;2023-09-08T11:02:57;2.90;;;1.20;;
79373;SDS011;68844;53.128;17.958;2023-09-08T11:05:21;2.30;;;1.30;;
79373;SDS011;68844;53.128;17.958;2023-09-08T11:07:47;2.20;;;1.10;;
79373;SDS011;68844;53.128;17.958;2023-09-08T11:10:19;1.50;;;1.10;;
79373;SDS011;68844;53.128;17.958;2023-09-08T11:12:46;2.20;;;1.40;;
79373;SDS011;68844;53.128;17.958;2023-09-08T11:15:12;2.40;;;1.00;;
79373;SDS011;68844;53.128;17.958;2023-09-08T11:17:39;2.80;;;1.30;;
79373;SDS011;68844;53.128;17.958;2023-09-08T11:20:08;4.10;;;1.30;;
79373;SDS011;68844;53.128;17.958;2023-09-08T11:22:37;3.30;;;1.30;;
79373;SDS011;68844;53.128;17.958;2023-09-08T11:25:08;1.50;;;1.00;;
79373;SDS011;68844;53.128;17.958;2023-09-08T11:27:38;1.90;;;1.40;;
79373;SDS011;68844;53.128;17.958;2023-09-08T11:30:06;2.60;;;1.10;;
79373;SDS011;68844;53.128;17.958;2023-09-08T11:32:35;2.20;;;1.10;;
79373;SDS011;68844;53.128;17.958;2023-09-08T11:35:03;2.40;;;1.40;;
79373;SDS011;68844;53.128;17.958;2023-09-08T11:37:40;1.70;;;1.00;;
79373;SDS011;68844;53.128;17.958;2023-09-08T11:40:08;2.30;;;1.20;;
79373;SDS011;68844;53.128;17.958;2023-09-08T11:42:37;3.10;;;1.10;;
79373;SDS011;68844;53.128;17.958;2023-09-08T11:45:13;1.90;;;1.00;;
79373;SDS011;68844;53.128;17.958;2023-09-08T11:47:41;1.70;;;1.30;;
79373;SDS011;68844;53.128;17.958;2023-09-08T11:50:11;2.10;;;1.40;;
79373;SDS011;68844;53.128;17.958;2023-09-08T11:52:48;1.90;;;1.40;;
79373;SDS011;68844;53.128;17.958;2023-09-08T11:55:19;2.60;;;1.30;;
79373;SDS011;68844;53.128;17.958;2023-09-08T11:57:48;1.90;;;1.30;;
79373;SDS011;68844;53.128;17.958;2023-09-08T12:00:17;1.60;;;1.20;;
79373;SDS011;68844;53.128;17.958;2023-09-08T12:02:47;1.10;;;0.60;;
79373;SDS011;68844;53.128;17.958;2023-09-08T12:05:21;1.90;;;1.20;;
79373;SDS011;68844;53.128;17.958;2023-09-08T12:07:52;1.60;;;1.40;;
79373;SDS011;68844;53.128;17.958;2023-09-08T12:10:21;1.90;;;1.20;;
79373;SDS011;68844;53.128;17.958;2023-09-08T12:12:51;1.70;;;1.30;;
79373;SDS011;68844;53.128;17.958;2023-09-08T12:18:04;4.50;;;1.30;;
79373;SDS011;68844;53.128;17.958;2023-09-08T12:20:35;3.00;;;1.10;;
79373;SDS011;68844;53.128;17.958;2023-09-08T12:23:19;3.00;;;1.00;;
79373;SDS011;68844;53.128;17.958;2023-09-08T12:25:51;1.60;;;1.20;;
79373;SDS011;68844;53.128;17.958;2023-09-08T12:28:21;2.30;;;1.20;;
79373;SDS011;68844;53.128;17.958;2023-09-08T12:30:48;1.30;;;1.10;;
79373;SDS011;68844;53.128;17.958;2023-09-08T12:33:16;2.20;;;1.10;;
79373;SDS011;68844;53.128;17.958;2023-09-08T12:35:46;1.90;;;1.30;;
79373;SDS011;68844;53.128;17.958;2023-09-08T12:38:19;3.10;;;1.50;;
79373;SDS011;68844;53.128;17.958;2023-09-08T12:40:46;2.20;;;1.30;;
79373;SDS011;68844;53.128;17.958;2023-09-08T12:43:13;2.40;;;1.30;;
79373;SDS011;68844;53.128;17.958;2023-09-08T12:45:39;2.20;;;1.30;;
79373;SDS011;68844;53.128;17.958;2023-09-08T12:48:06;3.00;;;1.20;;
79373;SDS011;68844;53.128;17.958;2023-09-08T12:53:00;2.90;;;1.40;;
79373;SDS011;68844;53.128;17.958;2023-09-08T12:55:26;2.20;;;1.50;;
79373;SDS011;68844;53.128;17.958;2023-09-08T12:57:53;2.30;;;1.60;;
79373;SDS011;68844;53.128;17.958;2023-09-08T13:00:23;2.40;;;1.40;;
79373;SDS011;68844;53.128;17.958;2023-09-08T13:02:50;1.60;;;1.10;;
79373;SDS011;68844;53.128;17.958;2023-09-08T13:05:17;2.10;;;1.50;;
79373;SDS011;68844;53.128;17.958;2023-09-08T13:07:44;1.80;;;1.30;;
79373;SDS011;68844;53.128;17.958;2023-09-08T13:10:10;1.80;;;1.40;;
79373;SDS011;68844;53.128;17.958;2023-09-08T13:12:37;2.40;;;1.10;;
79373;SDS011;68844;53.128;17.958;2023-09-08T13:15:03;2.10;;;1.40;;
79373;SDS011;68844;53.128;17.958;2023-09-08T13:17:31;3.60;;;1.30;;
79373;SDS011;68844;53.128;17.958;2023-09-08T13:19:57;2.40;;;1.60;;
79373;SDS011;68844;53.128;17.958;2023-09-08T13:22:24;1.70;;;1.20;;
79373;SDS011;68844;53.128;17.958;2023-09-08T13:24:50;4.40;;;1.70;;
79373;SDS011;68844;53.128;17.958;2023-09-08T13:27:17;2.00;;;1.40;;
79373;SDS011;68844;53.128;17.958;2023-09-08T13:29:45;2.10;;;1.40;;
79373;SDS011;68844;53.128;17.958;2023-09-08T13:32:11;3.80;;;1.50;;
79373;SDS011;68844;53.128;17.958;2023-09-08T13:34:38;2.00;;;1.60;;
79373;SDS011;68844;53.128;17.958;2023-09-08T13:37:04;2.10;;;1.20;;
79373;SDS011;68844;53.128;17.958;2023-09-08T13:39:31;3.30;;;1.40;;
79373;SDS011;68844;53.128;17.958;2023-09-08T13:41:59;3.00;;;1.70;;
79373;SDS011;68844;53.128;17.958;2023-09-08T13:44:26;2.00;;;1.50;;
79373;SDS011;68844;53.128;17.958;2023-09-08T13:46:53;1.50;;;1.30;;
79373;SDS011;68844;53.128;17.958;2023-09-08T13:49:21;2.00;;;1.20;;
79373;SDS011;68844;53.128;17.958;2023-09-08T13:51:49;3.10;;;1.60;;
79373;SDS011;68844;53.128;17.958;2023-09-08T13:54:18;2.90;;;1.50;;
79373;SDS011;68844;53.128;17.958;2023-09-08T13:56:45;2.50;;;1.70;;
79373;SDS011;68844;53.128;17.958;2023-09-08T13:59:12;2.20;;;1.50;;
79373;SDS011;68844;53.128;17.958;2023-09-08T14:01:39;2.80;;;1.50;;
79373;SDS011;68844;53.128;17.958;2023-09-08T14:04:05;4.90;;;1.50;;
79373;SDS011;68844;53.128;17.958;2023-09-08T14:06:32;3.50;;;1.30;;
79373;SDS011;68844;53.128;17.958;2023-09-08T14:09:00;2.20;;;1.60;;
79373;SDS011;68844;53.128;17.958;2023-09-08T14:13:54;2.30;;;1.60;;
79373;SDS011;68844;53.128;17.958;2023-09-08T14:16:21;4.50;;;1.40;;
79373;SDS011;68844;53.128;17.958;2023-09-08T14:18:47;2.10;;;1.30;;
79373;SDS011;68844;53.128;17.958;2023-09-08T14:21:14;3.70;;;1.40;;
79373;SDS011;68844;53.128;17.958;2023-09-08T14:23:41;4.10;;;1.50;;
79373;SDS011;68844;53.128;17.958;2023-09-08T14:26:08;2.00;;;1.40;;
79373;SDS011;68844;53.128;17.958;2023-09-08T14:28:35;2.40;;;1.50;;
79373;SDS011;68844;53.128;17.958;2023-09-08T14:31:02;1.90;;;1.10;;
79373;SDS011;68844;53.128;17.958;2023-09-08T14:33:29;1.90;;;1.50;;
79373;SDS011;68844;53.128;17.958;2023-09-08T14:35:56;2.70;;;1.50;;
79373;SDS011;68844;53.128;17.958;2023-09-08T14:38:23;2.80;;;1.20;;
79373;SDS011;68844;53.128;17.958;2023-09-08T14:40:57;1.90;;;1.30;;
79373;SDS011;68844;53.128;17.958;2023-09-08T14:43:25;3.50;;;1.40;;
79373;SDS011;68844;53.128;17.958;2023-09-08T14:45:53;2.20;;;1.40;;
79373;SDS011;68844;53.128;17.958;2023-09-08T14:48:20;1.90;;;1.30;;
79373;SDS011;68844;53.128;17.958;2023-09-08T14:50:46;2.30;;;1.30;;
79373;SDS011;68844;53.128;17.958;2023-09-08T14:53:13;2.50;;;1.50;;
79373;SDS011;68844;53.128;17.958;2023-09-08T14:55:40;3.30;;;1.90;;
79373;SDS011;68844;53.128;17.958;2023-09-08T14:58:10;3.00;;;1.60;;
79373;SDS011;68844;53.128;17.958;2023-09-08T15:00:39;3.50;;;1.50;;
79373;SDS011;68844;53.128;17.958;2023-09-08T15:05:33;2.50;;;1.70;;
79373;SDS011;68844;53.128;17.958;2023-09-08T15:08:01;2.50;;;1.70;;
79373;SDS011;68844;53.128;17.958;2023-09-08T15:10:28;2.80;;;1.90;;
79373;SDS011;68844;53.128;17.958;2023-09-08T15:12:55;3.80;;;1.90;;
79373;SDS011;68844;53.128;17.958;2023-09-08T15:15:21;2.30;;;1.70;;